sensor_id;sensor_type;location;lat;lon;timestamp;pressure;altitude;pressure_sealevel;temperature;humidity
71151;BME280;59071;42.138;24.768;2023-04-15T00:00:14;98915.00;;;15.90;60.21
71151;BME280;59071;42.138;24.768;2023-04-15T00:02:39;98913.69;;;15.97;60.20
71151;BME280;59071;42.138;24.768;2023-04-15T00:05:05;98912.41;;;16.10;58.98
71151;BME280;59071;42.138;24.768;2023-04-15T00:07:30;98900.66;;;16.16;59.03
71151;BME280;59071;42.138;24.768;2023-04-15T00:09:57;98903.44;;;15.52;61.15
71151;BME280;59071;42.138;24.768;2023-04-15T00:12:23;98913.81;;;15.43;61.69
71151;BME280;59071;42.138;24.768;2023-04-15T00:14:48;98918.06;;;15.71;60.90
71151;BME280;59071;42.138;24.768;2023-04-15T00:17:14;98923.91;;;16.00;59.20
71151;BME280;59071;42.138;24.768;2023-04-15T00:19:39;98925.03;;;16.10;59.63
71151;BME280;59071;42.138;24.768;2023-04-15T00:22:04;98930.91;;;16.01;59.62
71151;BME280;59071;42.138;24.768;2023-04-15T00:24:30;98933.34;;;16.08;59.44
71151;BME280;59071;42.138;24.768;2023-04-15T00:26:56;98923.28;;;16.31;58.35
71151;BME280;59071;42.138;24.768;2023-04-15T00:29:22;98925.69;;;16.32;58.65
71151;BME280;59071;42.138;24.768;2023-04-15T00:31:47;98931.38;;;16.41;58.20
71151;BME280;59071;42.138;24.768;2023-04-15T00:34:12;98926.59;;;16.00;59.21
71151;BME280;59071;42.138;24.768;2023-04-15T00:36:38;98908.06;;;15.67;60.30
71151;BME280;59071;42.138;24.768;2023-04-15T00:39:03;98910.59;;;15.73;60.06
71151;BME280;59071;42.138;24.768;2023-04-15T00:41:29;98909.25;;;15.43;61.28
71151;BME280;59071;42.138;24.768;2023-04-15T00:43:55;98912.16;;;15.10;62.31
71151;BME280;59071;42.138;24.768;2023-04-15T00:46:21;98916.28;;;15.22;62.28
71151;BME280;59071;42.138;24.768;2023-04-15T00:48:46;98919.97;;;15.43;60.83
71151;BME280;59071;42.138;24.768;2023-04-15T00:51:12;98921.78;;;15.38;61.20
71151;BME280;59071;42.138;24.768;2023-04-15T00:53:37;98923.38;;;15.66;60.94
71151;BME280;59071;42.138;24.768;2023-04-15T00:56:03;98913.78;;;15.11;62.02
71151;BME280;59071;42.138;24.768;2023-04-15T00:58:28;98913.97;;;15.04;62.91
71151;BME280;59071;42.138;24.768;2023-04-15T01:00:54;98914.81;;;15.10;62.10
71151;BME280;59071;42.138;24.768;2023-04-15T01:03:19;98901.03;;;14.96;62.71
71151;BME280;59071;42.138;24.768;2023-04-15T01:05:45;98902.19;;;14.78;63.49
71151;BME280;59071;42.138;24.768;2023-04-15T01:08:10;98904.34;;;14.81;63.26
71151;BME280;59071;42.138;24.768;2023-04-15T01:10:36;98895.75;;;14.79;62.62
71151;BME280;59071;42.138;24.768;2023-04-15T01:13:02;98902.63;;;14.70;63.50
71151;BME280;59071;42.138;24.768;2023-04-15T01:15:27;98901.81;;;14.69;63.72
71151;BME280;59071;42.138;24.768;2023-04-15T01:17:52;98915.91;;;15.09;61.66
71151;BME280;59071;42.138;24.768;2023-04-15T01:20:18;98920.03;;;14.94;61.82
71151;BME280;59071;42.138;24.768;2023-04-15T01:22:44;98924.00;;;14.64;63.39
71151;BME280;59071;42.138;24.768;2023-04-15T01:25:10;98917.63;;;14.26;63.33
71151;BME280;59071;42.138;24.768;2023-04-15T01:27:39;98926.19;;;14.51;62.87
71151;BME280;59071;42.138;24.768;2023-04-15T01:30:06;98932.66;;;14.72;62.10
71151;BME280;59071;42.138;24.768;2023-04-15T01:32:32;98926.84;;;14.58;62.07
71151;BME280;59071;42.138;24.768;2023-04-15T01:34:57;98919.16;;;14.22;62.97
71151;BME280;59071;42.138;24.768;2023-04-15T01:37:22;98912.03;;;14.28;62.78
71151;BME280;59071;42.138;24.768;2023-04-15T01:39:48;98923.00;;;14.32;61.80
71151;BME280;59071;42.138;24.768;2023-04-15T01:42:13;98927.56;;;13.92;63.44
71151;BME280;59071;42.138;24.768;2023-04-15T01:44:39;98922.81;;;14.16;62.46
71151;BME280;59071;42.138;24.768;2023-04-15T01:47:04;98922.06;;;14.60;61.63
71151;BME280;59071;42.138;24.768;2023-04-15T01:49:30;98931.31;;;14.52;61.82
71151;BME280;59071;42.138;24.768;2023-04-15T01:51:56;98934.28;;;13.78;64.62
71151;BME280;59071;42.138;24.768;2023-04-15T01:54:21;98931.84;;;13.76;64.63
71151;BME280;59071;42.138;24.768;2023-04-15T01:56:47;98936.81;;;13.67;64.95
71151;BME280;59071;42.138;24.768;2023-04-15T01:59:12;98947.50;;;13.67;64.01
71151;BME280;59071;42.138;24.768;2023-04-15T02:01:37;98962.34;;;13.92;63.33
71151;BME280;59071;42.138;24.768;2023-04-15T02:04:03;98977.84;;;14.29;61.60
71151;BME280;59071;42.138;24.768;2023-04-15T02:06:29;98976.94;;;14.40;61.57
71151;BME280;59071;42.138;24.768;2023-04-15T02:08:54;98971.66;;;14.45;60.98
71151;BME280;59071;42.138;24.768;2023-04-15T02:11:19;98976.16;;;14.62;60.10
71151;BME280;59071;42.138;24.768;2023-04-15T02:13:44;98960.66;;;14.64;59.83
71151;BME280;59071;42.138;24.768;2023-04-15T02:16:17;98964.13;;;14.42;60.10
71151;BME280;59071;42.138;24.768;2023-04-15T02:18:43;98961.59;;;14.53;59.54
71151;BME280;59071;42.138;24.768;2023-04-15T02:21:08;98963.19;;;14.54;58.79
71151;BME280;59071;42.138;24.768;2023-04-15T02:23:34;98959.41;;;14.50;58.53
71151;BME280;59071;42.138;24.768;2023-04-15T02:25:59;98957.66;;;14.21;59.38
71151;BME280;59071;42.138;24.768;2023-04-15T02:28:25;98956.00;;;14.15;58.51
71151;BME280;59071;42.138;24.768;2023-04-15T02:30:51;98969.16;;;14.00;59.05
71151;BME280;59071;42.138;24.768;2023-04-15T02:33:17;98952.34;;;14.04;58.62
71151;BME280;59071;42.138;24.768;2023-04-15T02:35:43;98948.88;;;13.87;59.11
71151;BME280;59071;42.138;24.768;2023-04-15T02:38:09;98947.19;;;13.98;59.19
71151;BME280;59071;42.138;24.768;2023-04-15T02:40:35;98944.88;;;14.06;58.69
71151;BME280;59071;42.138;24.768;2023-04-15T02:43:01;98944.13;;;14.28;58.20
71151;BME280;59071;42.138;24.768;2023-04-15T02:45:26;98953.59;;;14.36;58.02
71151;BME280;59071;42.138;24.768;2023-04-15T02:47:52;98959.56;;;14.43;57.49
71151;BME280;59071;42.138;24.768;2023-04-15T02:50:17;98962.47;;;14.02;57.77
71151;BME280;59071;42.138;24.768;2023-04-15T02:52:42;98974.91;;;13.75;58.43
71151;BME280;59071;42.138;24.768;2023-04-15T02:55:08;98977.81;;;13.73;57.96
71151;BME280;59071;42.138;24.768;2023-04-15T02:57:34;98973.19;;;13.68;58.57
71151;BME280;59071;42.138;24.768;2023-04-15T03:00:02;98977.41;;;13.64;57.97
71151;BME280;59071;42.138;24.768;2023-04-15T03:02:32;98978.53;;;13.68;58.14
71151;BME280;59071;42.138;24.768;2023-04-15T03:04:57;98976.97;;;13.10;59.50
71151;BME280;59071;42.138;24.768;2023-04-15T03:07:22;98968.66;;;13.23;59.16
71151;BME280;59071;42.138;24.768;2023-04-15T03:09:47;98952.41;;;13.42;58.95
71151;BME280;59071;42.138;24.768;2023-04-15T03:12:13;98953.25;;;13.59;59.04
71151;BME280;59071;42.138;24.768;2023-04-15T03:14:38;98968.72;;;13.74;58.87
71151;BME280;59071;42.138;24.768;2023-04-15T03:17:03;98965.97;;;13.52;58.32
71151;BME280;59071;42.138;24.768;2023-04-15T03:19:29;98972.91;;;13.36;59.21
71151;BME280;59071;42.138;24.768;2023-04-15T03:21:54;98984.41;;;13.08;60.24
71151;BME280;59071;42.138;24.768;2023-04-15T03:24:19;98981.13;;;13.46;58.98
71151;BME280;59071;42.138;24.768;2023-04-15T03:26:44;98986.50;;;13.80;57.63
71151;BME280;59071;42.138;24.768;2023-04-15T03:29:10;98981.38;;;13.96;57.12
71151;BME280;59071;42.138;24.768;2023-04-15T03:31:35;98992.16;;;14.01;57.03
71151;BME280;59071;42.138;24.768;2023-04-15T03:34:01;98990.63;;;13.88;56.40
71151;BME280;59071;42.138;24.768;2023-04-15T03:36:27;98996.78;;;13.88;56.75
71151;BME280;59071;42.138;24.768;2023-04-15T03:38:53;98996.03;;;13.93;55.41
71151;BME280;59071;42.138;24.768;2023-04-15T03:41:20;99010.06;;;14.00;55.43
71151;BME280;59071;42.138;24.768;2023-04-15T03:43:45;99023.28;;;13.73;56.89
71151;BME280;59071;42.138;24.768;2023-04-15T03:46:10;99038.47;;;13.27;57.77
71151;BME280;59071;42.138;24.768;2023-04-15T03:48:36;99024.00;;;12.59;60.09
71151;BME280;59071;42.138;24.768;2023-04-15T03:51:01;99033.63;;;13.12;59.06
71151;BME280;59071;42.138;24.768;2023-04-15T03:53:26;99022.09;;;12.71;60.18
71151;BME280;59071;42.138;24.768;2023-04-15T03:55:52;99042.13;;;12.97;59.22
71151;BME280;59071;42.138;24.768;2023-04-15T03:58:17;99039.25;;;12.99;59.55
71151;BME280;59071;42.138;24.768;2023-04-15T04:00:42;99054.00;;;12.66;60.51
71151;BME280;59071;42.138;24.768;2023-04-15T04:03:08;99058.09;;;12.68;60.21
71151;BME280;59071;42.138;24.768;2023-04-15T04:05:33;99064.84;;;12.47;60.96
71151;BME280;59071;42.138;24.768;2023-04-15T04:08:01;99052.94;;;12.90;59.49
71151;BME280;59071;42.138;24.768;2023-04-15T04:10:26;99047.25;;;12.87;60.07
71151;BME280;59071;42.138;24.768;2023-04-15T04:12:51;99051.91;;;12.91;60.28
71151;BME280;59071;42.138;24.768;2023-04-15T04:15:17;99038.63;;;13.08;59.73
71151;BME280;59071;42.138;24.768;2023-04-15T04:17:42;99051.94;;;13.20;59.60
71151;BME280;59071;42.138;24.768;2023-04-15T04:20:07;99059.41;;;13.06;59.82
71151;BME280;59071;42.138;24.768;2023-04-15T04:22:36;99060.63;;;13.27;58.82
71151;BME280;59071;42.138;24.768;2023-04-15T04:25:02;99059.88;;;13.44;58.39
71151;BME280;59071;42.138;24.768;2023-04-15T04:27:27;99057.66;;;13.00;60.13
71151;BME280;59071;42.138;24.768;2023-04-15T04:29:52;99067.44;;;13.47;58.84
71151;BME280;59071;42.138;24.768;2023-04-15T04:32:18;99055.66;;;13.60;58.07
71151;BME280;59071;42.138;24.768;2023-04-15T04:34:43;99061.56;;;14.07;56.09
71151;BME280;59071;42.138;24.768;2023-04-15T04:37:08;99062.69;;;14.12;55.02
71151;BME280;59071;42.138;24.768;2023-04-15T04:39:33;99063.00;;;14.32;54.45
71151;BME280;59071;42.138;24.768;2023-04-15T04:41:59;99059.44;;;14.26;54.82
71151;BME280;59071;42.138;24.768;2023-04-15T04:44:25;99068.03;;;14.62;54.26
71151;BME280;59071;42.138;24.768;2023-04-15T04:46:51;99074.25;;;15.07;53.17
71151;BME280;59071;42.138;24.768;2023-04-15T04:49:16;99081.16;;;15.03;52.83
71151;BME280;59071;42.138;24.768;2023-04-15T04:51:41;99079.38;;;15.31;52.71
71151;BME280;59071;42.138;24.768;2023-04-15T04:54:06;99071.97;;;15.92;50.75
71151;BME280;59071;42.138;24.768;2023-04-15T04:56:32;99084.06;;;16.27;49.58
71151;BME280;59071;42.138;24.768;2023-04-15T04:58:58;99087.63;;;16.75;48.08
71151;BME280;59071;42.138;24.768;2023-04-15T05:01:24;99081.78;;;16.84;46.65
71151;BME280;59071;42.138;24.768;2023-04-15T05:03:50;99080.84;;;17.10;46.52
71151;BME280;59071;42.138;24.768;2023-04-15T05:06:16;99077.53;;;16.98;46.80
71151;BME280;59071;42.138;24.768;2023-04-15T05:08:41;99075.56;;;17.41;45.55
71151;BME280;59071;42.138;24.768;2023-04-15T05:11:06;99080.53;;;18.01;43.88
71151;BME280;59071;42.138;24.768;2023-04-15T05:13:31;99083.22;;;18.36;43.49
71151;BME280;59071;42.138;24.768;2023-04-15T05:15:57;99083.44;;;18.86;43.04
71151;BME280;59071;42.138;24.768;2023-04-15T05:18:22;99078.31;;;19.50;41.48
71151;BME280;59071;42.138;24.768;2023-04-15T05:20:47;99084.63;;;19.80;41.32
71151;BME280;59071;42.138;24.768;2023-04-15T05:23:14;99077.25;;;20.30;40.25
71151;BME280;59071;42.138;24.768;2023-04-15T05:25:39;99075.09;;;19.92;41.24
71151;BME280;59071;42.138;24.768;2023-04-15T05:28:05;99083.69;;;20.63;39.99
71151;BME280;59071;42.138;24.768;2023-04-15T05:30:30;99086.75;;;21.29;38.50
71151;BME280;59071;42.138;24.768;2023-04-15T05:32:56;99100.13;;;21.63;37.85
71151;BME280;59071;42.138;24.768;2023-04-15T05:35:21;99102.03;;;21.63;37.74
71151;BME280;59071;42.138;24.768;2023-04-15T05:37:47;99107.91;;;21.27;38.67
71151;BME280;59071;42.138;24.768;2023-04-15T05:40:12;99117.09;;;21.50;38.63
71151;BME280;59071;42.138;24.768;2023-04-15T05:42:37;99118.28;;;21.39;37.74
71151;BME280;59071;42.138;24.768;2023-04-15T05:45:03;99121.19;;;21.85;36.58
71151;BME280;59071;42.138;24.768;2023-04-15T05:47:29;99117.81;;;22.64;34.94
71151;BME280;59071;42.138;24.768;2023-04-15T05:49:55;99124.56;;;22.95;34.49
71151;BME280;59071;42.138;24.768;2023-04-15T05:52:20;99135.63;;;22.38;34.88
71151;BME280;59071;42.138;24.768;2023-04-15T05:54:45;99126.50;;;22.94;34.28
71151;BME280;59071;42.138;24.768;2023-04-15T05:57:11;99130.75;;;23.14;33.80
71151;BME280;59071;42.138;24.768;2023-04-15T05:59:36;99127.66;;;22.88;33.92
71151;BME280;59071;42.138;24.768;2023-04-15T06:02:03;99131.09;;;22.33;34.73
71151;BME280;59071;42.138;24.768;2023-04-15T06:04:28;99139.06;;;21.86;35.72
71151;BME280;59071;42.138;24.768;2023-04-15T06:06:53;99137.28;;;22.67;34.64
71151;BME280;59071;42.138;24.768;2023-04-15T06:09:18;99140.44;;;22.41;34.98
71151;BME280;59071;42.138;24.768;2023-04-15T06:11:44;99143.88;;;23.49;33.75
71151;BME280;59071;42.138;24.768;2023-04-15T06:14:09;99151.13;;;23.53;33.36
71151;BME280;59071;42.138;24.768;2023-04-15T06:16:34;99146.41;;;24.32;32.04
71151;BME280;59071;42.138;24.768;2023-04-15T06:19:00;99150.53;;;24.74;31.38
71151;BME280;59071;42.138;24.768;2023-04-15T06:21:26;99159.31;;;25.43;30.40
71151;BME280;59071;42.138;24.768;2023-04-15T06:23:51;99160.56;;;25.28;30.34
71151;BME280;59071;42.138;24.768;2023-04-15T06:26:17;99166.56;;;25.56;30.19
71151;BME280;59071;42.138;24.768;2023-04-15T06:28:42;99162.91;;;25.69;30.26
71151;BME280;59071;42.138;24.768;2023-04-15T06:31:07;99156.97;;;26.63;29.03
71151;BME280;59071;42.138;24.768;2023-04-15T06:33:33;99162.97;;;27.04;28.18
71151;BME280;59071;42.138;24.768;2023-04-15T06:35:58;99164.31;;;27.36;27.72
71151;BME280;59071;42.138;24.768;2023-04-15T06:38:23;99169.88;;;27.01;28.18
71151;BME280;59071;42.138;24.768;2023-04-15T06:40:48;99169.69;;;26.33;28.93
71151;BME280;59071;42.138;24.768;2023-04-15T06:43:14;99166.44;;;26.57;29.06
71151;BME280;59071;42.138;24.768;2023-04-15T06:45:39;99161.03;;;26.22;29.25
71151;BME280;59071;42.138;24.768;2023-04-15T06:48:05;99161.66;;;27.10;28.51
71151;BME280;59071;42.138;24.768;2023-04-15T06:50:30;99163.13;;;27.46;28.22
71151;BME280;59071;42.138;24.768;2023-04-15T06:52:55;99165.69;;;26.39;29.66
71151;BME280;59071;42.138;24.768;2023-04-15T06:55:21;99165.75;;;27.34;28.56
71151;BME280;59071;42.138;24.768;2023-04-15T06:57:46;99168.66;;;27.58;28.42
71151;BME280;59071;42.138;24.768;2023-04-15T07:00:12;99173.34;;;28.08;27.80
71151;BME280;59071;42.138;24.768;2023-04-15T07:02:37;99158.81;;;28.29;27.80
71151;BME280;59071;42.138;24.768;2023-04-15T07:05:03;99166.34;;;28.99;27.22
71151;BME280;59071;42.138;24.768;2023-04-15T07:07:29;99160.47;;;29.21;27.33
71151;BME280;59071;42.138;24.768;2023-04-15T07:09:54;99173.13;;;29.14;27.36
71151;BME280;59071;42.138;24.768;2023-04-15T07:12:19;99172.19;;;29.47;27.02
71151;BME280;59071;42.138;24.768;2023-04-15T07:14:45;99179.16;;;29.81;26.60
71151;BME280;59071;42.138;24.768;2023-04-15T07:17:10;99176.63;;;29.88;26.24
71151;BME280;59071;42.138;24.768;2023-04-15T07:19:36;99180.63;;;29.66;26.99
71151;BME280;59071;42.138;24.768;2023-04-15T07:22:01;99178.88;;;29.98;26.53
71151;BME280;59071;42.138;24.768;2023-04-15T07:24:26;99182.69;;;30.22;26.05
71151;BME280;59071;42.138;24.768;2023-04-15T07:26:55;99185.84;;;28.97;27.15
71151;BME280;59071;42.138;24.768;2023-04-15T07:29:22;99190.38;;;29.76;26.85
71151;BME280;59071;42.138;24.768;2023-04-15T07:31:47;99201.25;;;30.13;26.77
71151;BME280;59071;42.138;24.768;2023-04-15T07:34:13;99197.63;;;29.96;26.49
71151;BME280;59071;42.138;24.768;2023-04-15T07:36:38;99196.00;;;28.30;28.85
71151;BME280;59071;42.138;24.768;2023-04-15T07:39:04;99189.22;;;29.15;27.45
71151;BME280;59071;42.138;24.768;2023-04-15T07:41:29;99183.97;;;29.59;26.64
71151;BME280;59071;42.138;24.768;2023-04-15T07:43:55;99185.75;;;30.05;26.42
71151;BME280;59071;42.138;24.768;2023-04-15T07:46:20;99181.59;;;28.21;27.82
71151;BME280;59071;42.138;24.768;2023-04-15T07:48:48;99182.03;;;29.48;26.86
71151;BME280;59071;42.138;24.768;2023-04-15T07:51:13;99173.44;;;29.12;27.61
71151;BME280;59071;42.138;24.768;2023-04-15T07:53:38;99184.22;;;30.07;26.57
71151;BME280;59071;42.138;24.768;2023-04-15T07:56:04;99180.69;;;30.91;24.95
71151;BME280;59071;42.138;24.768;2023-04-15T07:58:29;99177.72;;;30.84;24.43
71151;BME280;59071;42.138;24.768;2023-04-15T08:00:55;99183.78;;;30.05;24.95
71151;BME280;59071;42.138;24.768;2023-04-15T08:03:20;99187.81;;;30.64;24.62
71151;BME280;59071;42.138;24.768;2023-04-15T08:05:46;99184.31;;;31.27;24.30
71151;BME280;59071;42.138;24.768;2023-04-15T08:08:11;99191.63;;;31.71;25.02
71151;BME280;59071;42.138;24.768;2023-04-15T08:10:37;99179.03;;;31.70;24.70
71151;BME280;59071;42.138;24.768;2023-04-15T08:13:02;99182.44;;;32.18;23.73
71151;BME280;59071;42.138;24.768;2023-04-15T08:15:28;99181.63;;;30.83;24.88
71151;BME280;59071;42.138;24.768;2023-04-15T08:17:53;99181.31;;;31.32;24.44
71151;BME280;59071;42.138;24.768;2023-04-15T08:20:18;99177.91;;;31.90;24.31
71151;BME280;59071;42.138;24.768;2023-04-15T08:22:44;99177.22;;;31.77;24.22
71151;BME280;59071;42.138;24.768;2023-04-15T08:25:11;99181.09;;;31.92;23.85
71151;BME280;59071;42.138;24.768;2023-04-15T08:27:37;99186.19;;;31.07;25.22
71151;BME280;59071;42.138;24.768;2023-04-15T08:30:02;99181.84;;;30.06;25.52
71151;BME280;59071;42.138;24.768;2023-04-15T08:32:28;99179.03;;;29.03;26.87
71151;BME280;59071;42.138;24.768;2023-04-15T08:34:53;99171.75;;;29.44;26.10
71151;BME280;59071;42.138;24.768;2023-04-15T08:37:19;99170.25;;;29.59;26.28
71151;BME280;59071;42.138;24.768;2023-04-15T08:39:45;99170.25;;;29.47;26.49
71151;BME280;59071;42.138;24.768;2023-04-15T08:42:11;99163.28;;;29.13;26.30
71151;BME280;59071;42.138;24.768;2023-04-15T08:44:40;99167.38;;;27.35;28.97
71151;BME280;59071;42.138;24.768;2023-04-15T08:47:06;99172.25;;;27.50;28.88
71151;BME280;59071;42.138;24.768;2023-04-15T08:49:32;99170.53;;;27.96;28.05
71151;BME280;59071;42.138;24.768;2023-04-15T08:52:00;99167.44;;;28.40;27.95
71151;BME280;59071;42.138;24.768;2023-04-15T08:54:26;99166.41;;;28.65;27.23
71151;BME280;59071;42.138;24.768;2023-04-15T08:56:52;99168.38;;;27.81;27.88
71151;BME280;59071;42.138;24.768;2023-04-15T08:59:18;99162.09;;;27.59;27.84
71151;BME280;59071;42.138;24.768;2023-04-15T09:01:45;99171.47;;;28.00;27.90
71151;BME280;59071;42.138;24.768;2023-04-15T09:04:11;99179.41;;;27.93;28.00
71151;BME280;59071;42.138;24.768;2023-04-15T09:06:36;99170.50;;;27.45;28.10
71151;BME280;59071;42.138;24.768;2023-04-15T09:09:03;99167.28;;;28.36;27.13
71151;BME280;59071;42.138;24.768;2023-04-15T09:11:29;99158.66;;;28.80;26.83
71151;BME280;59071;42.138;24.768;2023-04-15T09:13:55;99166.06;;;28.13;27.95
71151;BME280;59071;42.138;24.768;2023-04-15T09:16:20;99159.94;;;27.44;28.04
71151;BME280;59071;42.138;24.768;2023-04-15T09:18:46;99163.75;;;27.52;28.21
71151;BME280;59071;42.138;24.768;2023-04-15T09:21:12;99165.00;;;26.68;29.30
71151;BME280;59071;42.138;24.768;2023-04-15T09:23:38;99163.09;;;26.34;30.66
71151;BME280;59071;42.138;24.768;2023-04-15T09:26:04;99154.31;;;24.65;33.58
71151;BME280;59071;42.138;24.768;2023-04-15T09:28:30;99166.41;;;23.63;34.93
71151;BME280;59071;42.138;24.768;2023-04-15T09:30:56;99153.63;;;22.94;35.38
71151;BME280;59071;42.138;24.768;2023-04-15T09:33:22;99145.41;;;23.27;34.67
71151;BME280;59071;42.138;24.768;2023-04-15T09:35:55;99145.25;;;23.88;33.25
71151;BME280;59071;42.138;24.768;2023-04-15T09:38:21;99149.00;;;24.14;33.37
71151;BME280;59071;42.138;24.768;2023-04-15T09:40:46;99142.44;;;25.23;31.41
71151;BME280;59071;42.138;24.768;2023-04-15T09:43:11;99146.69;;;25.55;31.00
71151;BME280;59071;42.138;24.768;2023-04-15T09:45:36;99140.00;;;25.70;31.40
71151;BME280;59071;42.138;24.768;2023-04-15T09:50:41;99132.94;;;25.87;31.41
71151;BME280;59071;42.138;24.768;2023-04-15T09:53:10;99134.94;;;24.89;32.60
71151;BME280;59071;42.138;24.768;2023-04-15T09:55:38;99144.63;;;25.12;31.52
71151;BME280;59071;42.138;24.768;2023-04-15T09:58:16;99125.72;;;24.22;31.40
71151;BME280;59071;42.138;24.768;2023-04-15T10:00:41;99139.72;;;24.92;30.27
71151;BME280;59071;42.138;24.768;2023-04-15T10:03:07;99133.53;;;24.69;30.21
71151;BME280;59071;42.138;24.768;2023-04-15T10:05:32;99132.47;;;25.18;29.54
71151;BME280;59071;42.138;24.768;2023-04-15T10:07:58;99129.69;;;25.59;28.19
71151;BME280;59071;42.138;24.768;2023-04-15T10:10:24;99126.38;;;25.88;28.37
71151;BME280;59071;42.138;24.768;2023-04-15T10:12:50;99110.34;;;26.21;27.75
71151;BME280;59071;42.138;24.768;2023-04-15T10:15:16;99114.31;;;25.54;28.86
71151;BME280;59071;42.138;24.768;2023-04-15T10:17:43;99108.69;;;25.42;29.24
71151;BME280;59071;42.138;24.768;2023-04-15T10:20:08;99111.47;;;24.70;30.61
71151;BME280;59071;42.138;24.768;2023-04-15T10:22:34;99110.50;;;23.98;31.02
71151;BME280;59071;42.138;24.768;2023-04-15T10:25:00;99107.84;;;23.85;31.14
71151;BME280;59071;42.138;24.768;2023-04-15T10:27:26;99089.84;;;24.43;30.80
71151;BME280;59071;42.138;24.768;2023-04-15T10:29:53;99107.22;;;23.74;31.62
71151;BME280;59071;42.138;24.768;2023-04-15T10:32:18;99087.50;;;24.27;31.08
71151;BME280;59071;42.138;24.768;2023-04-15T10:34:45;99103.41;;;25.36;30.81
71151;BME280;59071;42.138;24.768;2023-04-15T10:37:11;99082.72;;;26.49;30.25
71151;BME280;59071;42.138;24.768;2023-04-15T10:42:05;99088.19;;;27.26;29.35
71151;BME280;59071;42.138;24.768;2023-04-15T10:44:31;99081.56;;;27.57;28.88
71151;BME280;59071;42.138;24.768;2023-04-15T10:46:56;99087.50;;;26.52;30.00
71151;BME280;59071;42.138;24.768;2023-04-15T10:49:25;99077.34;;;25.70;30.82
71151;BME280;59071;42.138;24.768;2023-04-15T10:51:51;99079.59;;;25.94;31.91
71151;BME280;59071;42.138;24.768;2023-04-15T10:56:43;99083.16;;;27.58;29.39
71151;BME280;59071;42.138;24.768;2023-04-15T10:59:09;99077.16;;;27.43;29.04
71151;BME280;59071;42.138;24.768;2023-04-15T11:01:52;99078.91;;;26.24;30.57
71151;BME280;59071;42.138;24.768;2023-04-15T11:07:05;99060.03;;;26.57;29.44
71151;BME280;59071;42.138;24.768;2023-04-15T11:09:31;99062.94;;;26.61;29.89
71151;BME280;59071;42.138;24.768;2023-04-15T11:12:06;99073.63;;;25.49;30.45
71151;BME280;59071;42.138;24.768;2023-04-15T11:14:41;99060.72;;;25.14;31.19
71151;BME280;59071;42.138;24.768;2023-04-15T11:17:07;99060.03;;;25.92;30.56
71151;BME280;59071;42.138;24.768;2023-04-15T11:19:36;99060.31;;;25.39;30.56
71151;BME280;59071;42.138;24.768;2023-04-15T11:22:09;99059.19;;;25.40;30.71
71151;BME280;59071;42.138;24.768;2023-04-15T11:24:35;99058.44;;;24.05;33.26
71151;BME280;59071;42.138;24.768;2023-04-15T11:27:00;99062.38;;;24.75;32.29
71151;BME280;59071;42.138;24.768;2023-04-15T11:29:29;99055.13;;;25.20;31.28
71151;BME280;59071;42.138;24.768;2023-04-15T11:32:08;99055.72;;;24.99;30.64
71151;BME280;59071;42.138;24.768;2023-04-15T11:34:33;99050.09;;;26.05;29.09
71151;BME280;59071;42.138;24.768;2023-04-15T11:37:02;99047.47;;;26.26;29.31
71151;BME280;59071;42.138;24.768;2023-04-15T11:39:27;99051.25;;;26.90;28.43
71151;BME280;59071;42.138;24.768;2023-04-15T11:41:53;99043.94;;;27.11;29.16
71151;BME280;59071;42.138;24.768;2023-04-15T11:44:18;98993.34;;;25.72;30.13
71151;BME280;59071;42.138;24.768;2023-04-15T11:46:44;99030.31;;;26.17;30.10
71151;BME280;59071;42.138;24.768;2023-04-15T11:49:09;99035.31;;;26.15;30.21
71151;BME280;59071;42.138;24.768;2023-04-15T11:51:35;99036.28;;;25.41;30.67
71151;BME280;59071;42.138;24.768;2023-04-15T11:54:00;99034.28;;;24.57;32.13
71151;BME280;59071;42.138;24.768;2023-04-15T11:56:25;99037.88;;;24.75;32.56
71151;BME280;59071;42.138;24.768;2023-04-15T11:59:00;99026.22;;;24.84;32.15
71151;BME280;59071;42.138;24.768;2023-04-15T12:01:36;99014.78;;;25.22;31.49
71151;BME280;59071;42.138;24.768;2023-04-15T12:04:10;99014.00;;;24.64;31.89
71151;BME280;59071;42.138;24.768;2023-04-15T12:06:36;99009.06;;;24.66;33.22
71151;BME280;59071;42.138;24.768;2023-04-15T12:14:03;99017.44;;;24.47;32.53
71151;BME280;59071;42.138;24.768;2023-04-15T12:16:28;99012.69;;;24.61;32.51
71151;BME280;59071;42.138;24.768;2023-04-15T12:18:55;98995.63;;;24.38;32.39
71151;BME280;59071;42.138;24.768;2023-04-15T12:21:24;99012.34;;;23.91;33.75
71151;BME280;59071;42.138;24.768;2023-04-15T12:23:51;99002.75;;;23.94;34.45
71151;BME280;59071;42.138;24.768;2023-04-15T12:26:17;99006.34;;;23.08;36.04
71151;BME280;59071;42.138;24.768;2023-04-15T12:28:43;98997.66;;;23.56;35.42
71151;BME280;59071;42.138;24.768;2023-04-15T12:31:09;98998.38;;;23.70;34.98
71151;BME280;59071;42.138;24.768;2023-04-15T12:33:34;98991.84;;;23.71;35.33
71151;BME280;59071;42.138;24.768;2023-04-15T12:35:59;98993.94;;;23.01;36.04
71151;BME280;59071;42.138;24.768;2023-04-15T12:38:25;99003.56;;;22.24;37.82
71151;BME280;59071;42.138;24.768;2023-04-15T12:40:50;99005.81;;;22.36;38.52
71151;BME280;59071;42.138;24.768;2023-04-15T12:43:15;99002.50;;;23.09;37.29
71151;BME280;59071;42.138;24.768;2023-04-15T12:45:41;98999.47;;;23.24;36.94
71151;BME280;59071;42.138;24.768;2023-04-15T12:48:06;98993.00;;;23.34;36.49
71151;BME280;59071;42.138;24.768;2023-04-15T12:50:33;98997.38;;;23.21;36.98
71151;BME280;59071;42.138;24.768;2023-04-15T12:52:58;98999.25;;;23.93;36.11
71151;BME280;59071;42.138;24.768;2023-04-15T12:55:23;99020.47;;;23.55;36.24
71151;BME280;59071;42.138;24.768;2023-04-15T12:57:49;99006.31;;;22.52;38.58